sensor_id;sensor_type;location;lat;lon;timestamp;P1;durP1;ratioP1;P2;durP2;ratioP2
13028;SDS011;6581;42.662;23.402;2022-08-03T00:01:46;1.98;;;1.88;;
13028;SDS011;6581;42.662;23.402;2022-08-03T00:04:13;2.30;;;2.10;;
13028;SDS011;6581;42.662;23.402;2022-08-03T00:06:40;2.00;;;1.90;;
13028;SDS011;6581;42.662;23.402;2022-08-03T00:09:09;2.20;;;2.00;;
13028;SDS011;6581;42.662;23.402;2022-08-03T00:11:36;3.17;;;2.20;;
13028;SDS011;6581;42.662;23.402;2022-08-03T00:14:04;2.22;;;2.08;;
13028;SDS011;6581;42.662;23.402;2022-08-03T00:16:32;1.98;;;1.88;;
13028;SDS011;6581;42.662;23.402;2022-08-03T00:18:59;2.30;;;2.10;;
13028;SDS011;6581;42.662;23.402;2022-08-03T00:21:27;2.20;;;2.10;;
13028;SDS011;6581;42.662;23.402;2022-08-03T00:23:54;2.30;;;2.10;;
13028;SDS011;6581;42.662;23.402;2022-08-03T00:26:23;2.13;;;2.00;;
13028;SDS011;6581;42.662;23.402;2022-08-03T00:28:50;2.08;;;1.88;;
13028;SDS011;6581;42.662;23.402;2022-08-03T00:31:17;2.30;;;1.90;;
13028;SDS011;6581;42.662;23.402;2022-08-03T00:33:45;2.00;;;1.90;;
13028;SDS011;6581;42.662;23.402;2022-08-03T00:36:12;2.00;;;1.90;;
13028;SDS011;6581;42.662;23.402;2022-08-03T00:38:39;1.95;;;1.80;;
13028;SDS011;6581;42.662;23.402;2022-08-03T00:41:06;1.92;;;1.83;;
13028;SDS011;6581;42.662;23.402;2022-08-03T00:43:35;2.10;;;2.00;;
13028;SDS011;6581;42.662;23.402;2022-08-03T00:46:02;2.40;;;2.20;;
13028;SDS011;6581;42.662;23.402;2022-08-03T00:48:30;2.40;;;2.20;;
13028;SDS011;6581;42.662;23.402;2022-08-03T00:50:57;2.30;;;2.20;;
13028;SDS011;6581;42.662;23.402;2022-08-03T00:53:25;2.25;;;2.10;;
13028;SDS011;6581;42.662;23.402;2022-08-03T00:55:53;2.17;;;1.98;;
13028;SDS011;6581;42.662;23.402;2022-08-03T00:58:47;3.10;;;2.15;;
13028;SDS011;6581;42.662;23.402;2022-08-03T01:01:15;10.07;;;3.20;;
13028;SDS011;6581;42.662;23.402;2022-08-03T01:03:42;3.97;;;2.55;;
13028;SDS011;6581;42.662;23.402;2022-08-03T01:06:11;2.88;;;2.42;;
13028;SDS011;6581;42.662;23.402;2022-08-03T01:08:45;5.00;;;3.08;;
13028;SDS011;6581;42.662;23.402;2022-08-03T01:11:25;5.97;;;4.05;;
13028;SDS011;6581;42.662;23.402;2022-08-03T01:14:02;5.05;;;3.67;;
13028;SDS011;6581;42.662;23.402;2022-08-03T01:16:32;4.57;;;3.90;;
13028;SDS011;6581;42.662;23.402;2022-08-03T01:19:14;5.13;;;4.55;;
13028;SDS011;6581;42.662;23.402;2022-08-03T01:21:53;6.82;;;5.13;;
13028;SDS011;6581;42.662;23.402;2022-08-03T01:24:31;10.25;;;6.53;;
13028;SDS011;6581;42.662;23.402;2022-08-03T01:27:06;7.75;;;5.50;;
13028;SDS011;6581;42.662;23.402;2022-08-03T01:29:44;7.78;;;6.47;;
13028;SDS011;6581;42.662;23.402;2022-08-03T01:32:19;11.23;;;7.82;;
13028;SDS011;6581;42.662;23.402;2022-08-03T01:34:50;11.40;;;7.65;;
13028;SDS011;6581;42.662;23.402;2022-08-03T01:37:23;9.90;;;7.28;;
13028;SDS011;6581;42.662;23.402;2022-08-03T01:39:55;9.80;;;6.95;;
13028;SDS011;6581;42.662;23.402;2022-08-03T01:42:26;7.13;;;6.40;;
13028;SDS011;6581;42.662;23.402;2022-08-03T01:44:57;8.27;;;6.45;;
13028;SDS011;6581;42.662;23.402;2022-08-03T01:47:27;8.90;;;6.28;;
13028;SDS011;6581;42.662;23.402;2022-08-03T01:49:56;6.45;;;5.88;;
13028;SDS011;6581;42.662;23.402;2022-08-03T01:52:25;6.13;;;5.53;;
13028;SDS011;6581;42.662;23.402;2022-08-03T01:54:53;6.03;;;5.30;;
13028;SDS011;6581;42.662;23.402;2022-08-03T01:57:22;5.70;;;4.93;;
13028;SDS011;6581;42.662;23.402;2022-08-03T01:59:51;5.75;;;5.15;;
13028;SDS011;6581;42.662;23.402;2022-08-03T02:02:23;5.80;;;5.00;;
13028;SDS011;6581;42.662;23.402;2022-08-03T02:04:51;5.70;;;5.10;;
13028;SDS011;6581;42.662;23.402;2022-08-03T02:07:21;6.53;;;5.07;;
13028;SDS011;6581;42.662;23.402;2022-08-03T02:09:51;5.00;;;4.60;;
13028;SDS011;6581;42.662;23.402;2022-08-03T02:12:20;6.25;;;5.15;;
13028;SDS011;6581;42.662;23.402;2022-08-03T02:14:51;4.70;;;4.30;;
13028;SDS011;6581;42.662;23.402;2022-08-03T02:17:21;4.88;;;4.47;;
13028;SDS011;6581;42.662;23.402;2022-08-03T02:19:50;5.78;;;4.63;;
13028;SDS011;6581;42.662;23.402;2022-08-03T02:22:19;3.88;;;3.47;;
13028;SDS011;6581;42.662;23.402;2022-08-03T02:24:49;3.97;;;3.55;;
13028;SDS011;6581;42.662;23.402;2022-08-03T02:27:45;3.15;;;2.95;;
13028;SDS011;6581;42.662;23.402;2022-08-03T02:30:17;2.40;;;2.20;;
13028;SDS011;6581;42.662;23.402;2022-08-03T02:32:47;2.67;;;2.47;;
13028;SDS011;6581;42.662;23.402;2022-08-03T02:35:20;2.78;;;2.13;;
13028;SDS011;6581;42.662;23.402;2022-08-03T02:37:51;2.60;;;2.20;;
13028;SDS011;6581;42.662;23.402;2022-08-03T02:40:21;2.40;;;2.20;;
13028;SDS011;6581;42.662;23.402;2022-08-03T02:42:54;2.30;;;2.10;;
13028;SDS011;6581;42.662;23.402;2022-08-03T02:45:25;2.92;;;2.00;;
13028;SDS011;6581;42.662;23.402;2022-08-03T02:47:57;2.28;;;2.15;;
13028;SDS011;6581;42.662;23.402;2022-08-03T02:50:28;2.10;;;1.90;;
13028;SDS011;6581;42.662;23.402;2022-08-03T02:52:57;2.20;;;2.10;;
13028;SDS011;6581;42.662;23.402;2022-08-03T02:55:25;2.30;;;2.10;;
13028;SDS011;6581;42.662;23.402;2022-08-03T02:57:54;2.33;;;2.22;;
13028;SDS011;6581;42.662;23.402;2022-08-03T03:00:22;2.63;;;2.42;;
13028;SDS011;6581;42.662;23.402;2022-08-03T03:02:50;2.92;;;2.33;;
13028;SDS011;6581;42.662;23.402;2022-08-03T03:05:19;3.53;;;2.25;;
13028;SDS011;6581;42.662;23.402;2022-08-03T03:07:47;2.40;;;2.20;;
13028;SDS011;6581;42.662;23.402;2022-08-03T03:10:14;2.60;;;2.40;;
13028;SDS011;6581;42.662;23.402;2022-08-03T03:12:42;2.85;;;2.55;;
13028;SDS011;6581;42.662;23.402;2022-08-03T03:15:11;2.50;;;2.20;;
13028;SDS011;6581;42.662;23.402;2022-08-03T03:17:38;2.58;;;2.42;;
13028;SDS011;6581;42.662;23.402;2022-08-03T03:20:08;2.78;;;2.25;;
13028;SDS011;6581;42.662;23.402;2022-08-03T03:22:38;2.35;;;2.20;;
13028;SDS011;6581;42.662;23.402;2022-08-03T03:25:07;3.28;;;2.50;;
13028;SDS011;6581;42.662;23.402;2022-08-03T03:27:35;2.80;;;2.60;;
13028;SDS011;6581;42.662;23.402;2022-08-03T03:30:02;2.60;;;2.40;;
13028;SDS011;6581;42.662;23.402;2022-08-03T03:32:30;2.97;;;2.40;;
13028;SDS011;6581;42.662;23.402;2022-08-03T03:34:57;3.53;;;2.25;;
13028;SDS011;6581;42.662;23.402;2022-08-03T03:37:25;4.00;;;2.40;;
13028;SDS011;6581;42.662;23.402;2022-08-03T03:39:54;2.75;;;2.55;;
13028;SDS011;6581;42.662;23.402;2022-08-03T03:42:22;3.08;;;2.75;;
13028;SDS011;6581;42.662;23.402;2022-08-03T03:47:42;4.70;;;3.10;;
13028;SDS011;6581;42.662;23.402;2022-08-03T03:50:10;3.55;;;3.25;;
13028;SDS011;6581;42.662;23.402;2022-08-03T03:52:37;6.97;;;3.58;;
13028;SDS011;6581;42.662;23.402;2022-08-03T03:55:06;5.13;;;3.85;;
13028;SDS011;6581;42.662;23.402;2022-08-03T03:57:34;7.28;;;3.58;;
13028;SDS011;6581;42.662;23.402;2022-08-03T04:00:01;3.78;;;2.88;;
13028;SDS011;6581;42.662;23.402;2022-08-03T04:02:30;3.85;;;2.90;;
13028;SDS011;6581;42.662;23.402;2022-08-03T04:04:57;2.83;;;2.67;;
13028;SDS011;6581;42.662;23.402;2022-08-03T04:07:43;5.05;;;3.25;;
13028;SDS011;6581;42.662;23.402;2022-08-03T04:10:36;4.32;;;2.80;;
13028;SDS011;6581;42.662;23.402;2022-08-03T04:13:26;2.80;;;2.60;;
13028;SDS011;6581;42.662;23.402;2022-08-03T04:15:58;3.80;;;3.03;;
13028;SDS011;6581;42.662;23.402;2022-08-03T04:18:27;3.85;;;2.58;;
13028;SDS011;6581;42.662;23.402;2022-08-03T04:20:57;3.38;;;2.60;;
13028;SDS011;6581;42.662;23.402;2022-08-03T04:23:28;5.93;;;4.75;;
13028;SDS011;6581;42.662;23.402;2022-08-03T04:26:01;21.20;;;13.77;;
13028;SDS011;6581;42.662;23.402;2022-08-03T04:28:31;7.47;;;5.53;;
13028;SDS011;6581;42.662;23.402;2022-08-03T04:31:00;12.25;;;7.55;;
13028;SDS011;6581;42.662;23.402;2022-08-03T04:33:30;12.00;;;9.95;;
13028;SDS011;6581;42.662;23.402;2022-08-03T04:35:59;39.17;;;29.13;;
13028;SDS011;6581;42.662;23.402;2022-08-03T04:38:33;66.57;;;47.25;;
13028;SDS011;6581;42.662;23.402;2022-08-03T04:41:05;42.60;;;30.73;;
13028;SDS011;6581;42.662;23.402;2022-08-03T04:43:34;3.83;;;2.83;;
13028;SDS011;6581;42.662;23.402;2022-08-03T04:46:05;3.03;;;2.72;;
13028;SDS011;6581;42.662;23.402;2022-08-03T04:48:33;3.17;;;2.92;;
13028;SDS011;6581;42.662;23.402;2022-08-03T04:51:02;8.27;;;2.75;;
13028;SDS011;6581;42.662;23.402;2022-08-03T04:53:32;3.35;;;3.05;;
13028;SDS011;6581;42.662;23.402;2022-08-03T04:56:03;4.75;;;3.10;;
13028;SDS011;6581;42.662;23.402;2022-08-03T04:58:32;4.85;;;2.75;;
13028;SDS011;6581;42.662;23.402;2022-08-03T05:00:59;4.75;;;2.70;;
13028;SDS011;6581;42.662;23.402;2022-08-03T05:03:26;2.95;;;2.70;;
13028;SDS011;6581;42.662;23.402;2022-08-03T05:05:54;3.22;;;2.90;;
13028;SDS011;6581;42.662;23.402;2022-08-03T05:08:22;3.25;;;2.80;;
13028;SDS011;6581;42.662;23.402;2022-08-03T05:10:49;67.90;;;60.50;;
13028;SDS011;6581;42.662;23.402;2022-08-03T05:13:16;63.50;;;53.72;;
13028;SDS011;6581;42.662;23.402;2022-08-03T05:15:44;6.43;;;4.38;;
13028;SDS011;6581;42.662;23.402;2022-08-03T05:18:12;14.02;;;10.95;;
13028;SDS011;6581;42.662;23.402;2022-08-03T05:20:39;5.25;;;4.75;;
13028;SDS011;6581;42.662;23.402;2022-08-03T05:23:06;4.90;;;4.38;;
13028;SDS011;6581;42.662;23.402;2022-08-03T05:25:33;3.88;;;3.33;;
13028;SDS011;6581;42.662;23.402;2022-08-03T05:28:00;5.82;;;3.50;;
13028;SDS011;6581;42.662;23.402;2022-08-03T05:30:27;5.38;;;3.50;;
13028;SDS011;6581;42.662;23.402;2022-08-03T05:32:56;6.38;;;3.67;;
13028;SDS011;6581;42.662;23.402;2022-08-03T05:35:24;10.10;;;3.72;;
13028;SDS011;6581;42.662;23.402;2022-08-03T05:37:53;6.88;;;3.80;;
13028;SDS011;6581;42.662;23.402;2022-08-03T05:40:20;4.57;;;3.90;;
13028;SDS011;6581;42.662;23.402;2022-08-03T05:42:47;5.20;;;4.25;;
13028;SDS011;6581;42.662;23.402;2022-08-03T05:45:14;7.57;;;4.63;;
13028;SDS011;6581;42.662;23.402;2022-08-03T05:47:43;5.55;;;4.50;;
13028;SDS011;6581;42.662;23.402;2022-08-03T05:50:11;5.85;;;4.65;;
13028;SDS011;6581;42.662;23.402;2022-08-03T05:52:40;7.80;;;4.63;;
13028;SDS011;6581;42.662;23.402;2022-08-03T05:55:08;5.85;;;4.90;;
13028;SDS011;6581;42.662;23.402;2022-08-03T05:57:36;6.60;;;6.00;;
13028;SDS011;6581;42.662;23.402;2022-08-03T06:00:04;6.20;;;4.90;;
13028;SDS011;6581;42.662;23.402;2022-08-03T06:02:37;5.07;;;4.50;;
13028;SDS011;6581;42.662;23.402;2022-08-03T06:05:05;4.95;;;4.40;;
13028;SDS011;6581;42.662;23.402;2022-08-03T06:07:34;9.45;;;5.35;;
13028;SDS011;6581;42.662;23.402;2022-08-03T06:10:02;4.78;;;4.38;;
13028;SDS011;6581;42.662;23.402;2022-08-03T06:12:31;9.02;;;4.72;;
13028;SDS011;6581;42.662;23.402;2022-08-03T06:15:00;7.45;;;4.32;;
13028;SDS011;6581;42.662;23.402;2022-08-03T06:17:28;11.77;;;4.60;;
13028;SDS011;6581;42.662;23.402;2022-08-03T06:19:56;9.00;;;3.97;;
13028;SDS011;6581;42.662;23.402;2022-08-03T06:22:23;7.88;;;4.18;;
13028;SDS011;6581;42.662;23.402;2022-08-03T06:24:52;8.95;;;3.85;;
13028;SDS011;6581;42.662;23.402;2022-08-03T06:27:19;5.70;;;3.95;;
13028;SDS011;6581;42.662;23.402;2022-08-03T06:29:46;7.30;;;3.80;;
13028;SDS011;6581;42.662;23.402;2022-08-03T06:32:14;5.05;;;3.90;;
13028;SDS011;6581;42.662;23.402;2022-08-03T06:34:41;9.30;;;3.58;;
13028;SDS011;6581;42.662;23.402;2022-08-03T06:37:08;6.30;;;3.35;;
13028;SDS011;6581;42.662;23.402;2022-08-03T06:39:36;4.28;;;3.30;;
13028;SDS011;6581;42.662;23.402;2022-08-03T06:42:05;4.15;;;3.60;;
13028;SDS011;6581;42.662;23.402;2022-08-03T06:44:32;10.60;;;3.92;;
13028;SDS011;6581;42.662;23.402;2022-08-03T06:47:23;6.38;;;4.18;;
13028;SDS011;6581;42.662;23.402;2022-08-03T06:49:51;8.90;;;3.85;;
13028;SDS011;6581;42.662;23.402;2022-08-03T06:52:18;8.50;;;4.63;;
13028;SDS011;6581;42.662;23.402;2022-08-03T06:54:45;6.32;;;3.65;;
13028;SDS011;6581;42.662;23.402;2022-08-03T06:57:14;5.03;;;4.05;;
13028;SDS011;6581;42.662;23.402;2022-08-03T06:59:43;4.85;;;4.40;;
13028;SDS011;6581;42.662;23.402;2022-08-03T07:02:10;6.97;;;4.38;;
13028;SDS011;6581;42.662;23.402;2022-08-03T07:04:37;7.68;;;4.75;;
13028;SDS011;6581;42.662;23.402;2022-08-03T07:07:05;9.70;;;4.60;;
13028;SDS011;6581;42.662;23.402;2022-08-03T07:09:32;6.75;;;4.65;;
13028;SDS011;6581;42.662;23.402;2022-08-03T07:11:59;7.75;;;4.78;;
13028;SDS011;6581;42.662;23.402;2022-08-03T07:14:28;7.68;;;4.97;;
13028;SDS011;6581;42.662;23.402;2022-08-03T07:16:55;9.25;;;4.82;;
13028;SDS011;6581;42.662;23.402;2022-08-03T07:19:23;9.25;;;4.68;;
13028;SDS011;6581;42.662;23.402;2022-08-03T07:21:50;8.90;;;5.35;;
13028;SDS011;6581;42.662;23.402;2022-08-03T07:24:17;9.82;;;4.90;;
13028;SDS011;6581;42.662;23.402;2022-08-03T07:26:45;7.72;;;4.43;;
13028;SDS011;6581;42.662;23.402;2022-08-03T07:29:12;16.63;;;4.80;;
13028;SDS011;6581;42.662;23.402;2022-08-03T07:31:41;6.13;;;4.38;;
13028;SDS011;6581;42.662;23.402;2022-08-03T07:34:08;8.30;;;5.00;;
13028;SDS011;6581;42.662;23.402;2022-08-03T07:36:35;18.67;;;12.50;;
13028;SDS011;6581;42.662;23.402;2022-08-03T07:39:02;9.65;;;4.88;;
13028;SDS011;6581;42.662;23.402;2022-08-03T07:41:30;8.93;;;4.47;;
13028;SDS011;6581;42.662;23.402;2022-08-03T07:43:57;7.57;;;4.88;;
13028;SDS011;6581;42.662;23.402;2022-08-03T07:46:24;6.32;;;4.30;;
13028;SDS011;6581;42.662;23.402;2022-08-03T07:48:53;7.70;;;4.80;;
13028;SDS011;6581;42.662;23.402;2022-08-03T07:51:20;4.85;;;4.07;;
13028;SDS011;6581;42.662;23.402;2022-08-03T07:53:47;4.95;;;3.67;;
13028;SDS011;6581;42.662;23.402;2022-08-03T07:56:16;6.00;;;4.22;;
13028;SDS011;6581;42.662;23.402;2022-08-03T07:58:44;7.80;;;6.03;;
13028;SDS011;6581;42.662;23.402;2022-08-03T08:01:11;7.35;;;4.30;;
13028;SDS011;6581;42.662;23.402;2022-08-03T08:03:38;4.45;;;3.80;;
13028;SDS011;6581;42.662;23.402;2022-08-03T08:06:07;4.57;;;3.50;;
13028;SDS011;6581;42.662;23.402;2022-08-03T08:08:34;4.35;;;3.83;;
13028;SDS011;6581;42.662;23.402;2022-08-03T08:11:01;5.10;;;4.40;;
13028;SDS011;6581;42.662;23.402;2022-08-03T08:13:28;3.85;;;3.10;;
13028;SDS011;6581;42.662;23.402;2022-08-03T08:15:55;3.25;;;2.95;;
13028;SDS011;6581;42.662;23.402;2022-08-03T08:18:23;4.38;;;3.50;;
13028;SDS011;6581;42.662;23.402;2022-08-03T08:20:50;4.20;;;3.72;;
13028;SDS011;6581;42.662;23.402;2022-08-03T08:23:19;4.25;;;3.58;;
13028;SDS011;6581;42.662;23.402;2022-08-03T08:25:48;3.75;;;3.33;;
13028;SDS011;6581;42.662;23.402;2022-08-03T08:28:16;3.58;;;3.25;;
13028;SDS011;6581;42.662;23.402;2022-08-03T08:30:44;3.55;;;3.25;;
13028;SDS011;6581;42.662;23.402;2022-08-03T08:33:11;3.13;;;2.78;;
13028;SDS011;6581;42.662;23.402;2022-08-03T08:35:39;4.10;;;2.90;;
13028;SDS011;6581;42.662;23.402;2022-08-03T08:38:06;5.25;;;3.03;;
13028;SDS011;6581;42.662;23.402;2022-08-03T08:40:34;4.30;;;2.85;;
13028;SDS011;6581;42.662;23.402;2022-08-03T08:43:02;4.07;;;3.67;;
13028;SDS011;6581;42.662;23.402;2022-08-03T08:45:29;6.38;;;3.30;;
13028;SDS011;6581;42.662;23.402;2022-08-03T08:47:57;6.07;;;3.33;;
13028;SDS011;6581;42.662;23.402;2022-08-03T08:50:28;5.00;;;3.30;;
13028;SDS011;6581;42.662;23.402;2022-08-03T08:52:56;6.80;;;3.42;;
13028;SDS011;6581;42.662;23.402;2022-08-03T08:55:27;4.20;;;3.22;;
13028;SDS011;6581;42.662;23.402;2022-08-03T08:57:57;4.75;;;3.17;;
13028;SDS011;6581;42.662;23.402;2022-08-03T09:00:27;4.28;;;3.10;;
13028;SDS011;6581;42.662;23.402;2022-08-03T09:02:55;5.43;;;3.85;;
13028;SDS011;6581;42.662;23.402;2022-08-03T09:05:23;3.88;;;3.28;;
13028;SDS011;6581;42.662;23.402;2022-08-03T09:07:51;3.72;;;3.15;;
13028;SDS011;6581;42.662;23.402;2022-08-03T09:10:18;6.53;;;3.67;;
13028;SDS011;6581;42.662;23.402;2022-08-03T09:15:42;5.00;;;3.47;;
13028;SDS011;6581;42.662;23.402;2022-08-03T09:18:10;6.88;;;3.63;;
13028;SDS011;6581;42.662;23.402;2022-08-03T09:20:38;5.25;;;3.50;;
13028;SDS011;6581;42.662;23.402;2022-08-03T09:23:07;5.68;;;4.10;;
13028;SDS011;6581;42.662;23.402;2022-08-03T09:25:36;4.78;;;3.28;;
13028;SDS011;6581;42.662;23.402;2022-08-03T09:28:06;4.13;;;2.90;;
13028;SDS011;6581;42.662;23.402;2022-08-03T09:30:36;6.05;;;3.22;;
13028;SDS011;6581;42.662;23.402;2022-08-03T09:33:04;3.30;;;3.00;;
13028;SDS011;6581;42.662;23.402;2022-08-03T09:35:39;4.30;;;2.95;;
13028;SDS011;6581;42.662;23.402;2022-08-03T09:38:08;4.93;;;3.10;;
13028;SDS011;6581;42.662;23.402;2022-08-03T09:40:37;6.30;;;3.17;;
13028;SDS011;6581;42.662;23.402;2022-08-03T09:43:05;2.83;;;2.10;;
13028;SDS011;6581;42.662;23.402;2022-08-03T09:45:33;4.43;;;2.10;;
13028;SDS011;6581;42.662;23.402;2022-08-03T09:48:21;2.50;;;2.30;;
13028;SDS011;6581;42.662;23.402;2022-08-03T09:50:50;4.30;;;2.20;;
13028;SDS011;6581;42.662;23.402;2022-08-03T09:53:19;2.35;;;2.15;;
13028;SDS011;6581;42.662;23.402;2022-08-03T09:55:50;3.58;;;2.10;;
13028;SDS011;6581;42.662;23.402;2022-08-03T09:58:19;3.55;;;2.40;;
13028;SDS011;6581;42.662;23.402;2022-08-03T10:00:54;4.85;;;2.10;;
13028;SDS011;6581;42.662;23.402;2022-08-03T10:03:49;2.40;;;2.20;;
13028;SDS011;6581;42.662;23.402;2022-08-03T10:06:24;2.30;;;2.20;;
13028;SDS011;6581;42.662;23.402;2022-08-03T10:09:03;2.58;;;2.38;;
13028;SDS011;6581;42.662;23.402;2022-08-03T10:11:32;2.60;;;2.40;;
13028;SDS011;6581;42.662;23.402;2022-08-03T10:14:01;3.97;;;2.78;;
13028;SDS011;6581;42.662;23.402;2022-08-03T10:16:30;2.95;;;2.40;;
13028;SDS011;6581;42.662;23.402;2022-08-03T10:19:03;3.65;;;2.33;;
13028;SDS011;6581;42.662;23.402;2022-08-03T10:21:33;3.35;;;2.33;;
13028;SDS011;6581;42.662;23.402;2022-08-03T10:24:01;4.22;;;2.40;;
13028;SDS011;6581;42.662;23.402;2022-08-03T10:26:30;2.42;;;2.22;;
13028;SDS011;6581;42.662;23.402;2022-08-03T10:28:59;2.53;;;2.33;;
13028;SDS011;6581;42.662;23.402;2022-08-03T10:31:34;3.00;;;2.45;;
13028;SDS011;6581;42.662;23.402;2022-08-03T10:34:07;2.15;;;2.00;;
13028;SDS011;6581;42.662;23.402;2022-08-03T10:36:40;4.00;;;2.22;;
13028;SDS011;6581;42.662;23.402;2022-08-03T10:39:09;2.53;;;2.33;;
13028;SDS011;6581;42.662;23.402;2022-08-03T10:41:39;2.42;;;2.20;;
13028;SDS011;6581;42.662;23.402;2022-08-03T10:44:09;3.63;;;2.05;;
13028;SDS011;6581;42.662;23.402;2022-08-03T10:46:40;2.47;;;2.38;;
13028;SDS011;6581;42.662;23.402;2022-08-03T10:49:12;2.85;;;2.45;;
13028;SDS011;6581;42.662;23.402;2022-08-03T10:51:42;3.08;;;2.28;;
13028;SDS011;6581;42.662;23.402;2022-08-03T10:57:44;2.53;;;2.10;;
13028;SDS011;6581;42.662;23.402;2022-08-03T11:00:12;2.50;;;2.30;;
13028;SDS011;6581;42.662;23.402;2022-08-03T11:03:03;2.28;;;2.08;;
13028;SDS011;6581;42.662;23.402;2022-08-03T11:05:35;2.20;;;2.10;;
13028;SDS011;6581;42.662;23.402;2022-08-03T11:08:24;2.42;;;2.10;;
13028;SDS011;6581;42.662;23.402;2022-08-03T11:10:54;2.50;;;2.20;;
13028;SDS011;6581;42.662;23.402;2022-08-03T11:13:25;2.22;;;2.10;;
13028;SDS011;6581;42.662;23.402;2022-08-03T11:15:57;2.28;;;2.15;;
13028;SDS011;6581;42.662;23.402;2022-08-03T11:18:29;2.38;;;2.10;;
13028;SDS011;6581;42.662;23.402;2022-08-03T11:20:58;3.47;;;2.20;;
13028;SDS011;6581;42.662;23.402;2022-08-03T11:23:38;2.42;;;2.22;;
13028;SDS011;6581;42.662;23.402;2022-08-03T11:26:11;2.10;;;2.00;;
13028;SDS011;6581;42.662;23.402;2022-08-03T11:28:40;2.47;;;2.30;;
13028;SDS011;6581;42.662;23.402;2022-08-03T11:34:11;2.75;;;2.20;;
13028;SDS011;6581;42.662;23.402;2022-08-03T11:39:47;2.30;;;2.10;;
13028;SDS011;6581;42.662;23.402;2022-08-03T11:45:08;4.45;;;3.30;;
13028;SDS011;6581;42.662;23.402;2022-08-03T11:48:03;2.30;;;2.10;;
13028;SDS011;6581;42.662;23.402;2022-08-03T11:50:40;2.22;;;1.98;;
13028;SDS011;6581;42.662;23.402;2022-08-03T11:53:13;2.65;;;2.30;;
13028;SDS011;6581;42.662;23.402;2022-08-03T11:55:43;2.03;;;1.92;;
13028;SDS011;6581;42.662;23.402;2022-08-03T11:58:16;2.22;;;2.03;;
13028;SDS011;6581;42.662;23.402;2022-08-03T12:00:45;3.92;;;2.22;;
13028;SDS011;6581;42.662;23.402;2022-08-03T12:03:13;2.08;;;1.90;;
13028;SDS011;6581;42.662;23.402;2022-08-03T12:05:42;4.60;;;2.25;;
13028;SDS011;6581;42.662;23.402;2022-08-03T12:08:12;3.53;;;2.40;;
13028;SDS011;6581;42.662;23.402;2022-08-03T12:10:46;2.75;;;2.55;;
13028;SDS011;6581;42.662;23.402;2022-08-03T12:13:15;2.58;;;2.38;;
13028;SDS011;6581;42.662;23.402;2022-08-03T12:15:43;2.50;;;2.30;;
13028;SDS011;6581;42.662;23.402;2022-08-03T12:18:17;4.32;;;2.65;;
13028;SDS011;6581;42.662;23.402;2022-08-03T12:20:46;3.20;;;2.40;;
13028;SDS011;6581;42.662;23.402;2022-08-03T12:23:15;3.03;;;2.60;;
13028;SDS011;6581;42.662;23.402;2022-08-03T12:25:43;3.60;;;2.40;;
13028;SDS011;6581;42.662;23.402;2022-08-03T12:28:14;2.58;;;2.35;;
13028;SDS011;6581;42.662;23.402;2022-08-03T12:31:08;3.05;;;2.65;;
13028;SDS011;6581;42.662;23.402;2022-08-03T12:33:55;2.78;;;2.58;;
13028;SDS011;6581;42.662;23.402;2022-08-03T12:36:26;2.60;;;2.40;;
13028;SDS011;6581;42.662;23.402;2022-08-03T12:38:54;4.22;;;2.60;;
13028;SDS011;6581;42.662;23.402;2022-08-03T12:41:28;7.22;;;2.80;;
13028;SDS011;6581;42.662;23.402;2022-08-03T12:43:58;3.88;;;2.50;;
13028;SDS011;6581;42.662;23.402;2022-08-03T12:46:28;4.38;;;2.30;;
13028;SDS011;6581;42.662;23.402;2022-08-03T12:49:01;2.85;;;2.65;;
13028;SDS011;6581;42.662;23.402;2022-08-03T12:51:30;3.33;;;2.20;;
13028;SDS011;6581;42.662;23.402;2022-08-03T12:53:58;3.75;;;2.40;;
13028;SDS011;6581;42.662;23.402;2022-08-03T12:56:28;2.67;;;2.47;;
13028;SDS011;6581;42.662;23.402;2022-08-03T12:58:55;4.80;;;2.42;;
13028;SDS011;6581;42.662;23.402;2022-08-03T13:05:08;2.47;;;2.28;;
13028;SDS011;6581;42.662;23.402;2022-08-03T13:07:39;3.50;;;2.40;;
13028;SDS011;6581;42.662;23.402;2022-08-03T13:10:07;2.85;;;2.60;;
13028;SDS011;6581;42.662;23.402;2022-08-03T13:12:46;5.45;;;3.22;;
13028;SDS011;6581;42.662;23.402;2022-08-03T13:15:14;3.28;;;2.88;;
13028;SDS011;6581;42.662;23.402;2022-08-03T13:17:41;4.70;;;2.78;;
13028;SDS011;6581;42.662;23.402;2022-08-03T13:20:10;4.13;;;2.75;;
13028;SDS011;6581;42.662;23.402;2022-08-03T13:22:37;4.80;;;2.63;;
13028;SDS011;6581;42.662;23.402;2022-08-03T13:25:04;4.60;;;2.67;;
13028;SDS011;6581;42.662;23.402;2022-08-03T13:27:32;9.07;;;4.03;;
13028;SDS011;6581;42.662;23.402;2022-08-03T13:30:01;8.00;;;4.22;;
13028;SDS011;6581;42.662;23.402;2022-08-03T13:32:29;7.05;;;4.45;;
13028;SDS011;6581;42.662;23.402;2022-08-03T13:34:56;10.65;;;4.80;;
13028;SDS011;6581;42.662;23.402;2022-08-03T13:37:23;5.57;;;4.00;;
13028;SDS011;6581;42.662;23.402;2022-08-03T13:39:51;6.63;;;4.57;;
13028;SDS011;6581;42.662;23.402;2022-08-03T13:42:19;5.38;;;4.20;;
13028;SDS011;6581;42.662;23.402;2022-08-03T13:44:46;5.45;;;3.90;;
13028;SDS011;6581;42.662;23.402;2022-08-03T13:47:15;5.03;;;4.53;;
13028;SDS011;6581;42.662;23.402;2022-08-03T13:49:42;3.70;;;3.40;;
13028;SDS011;6581;42.662;23.402;2022-08-03T13:52:09;5.60;;;3.58;;
13028;SDS011;6581;42.662;23.402;2022-08-03T13:54:36;6.28;;;3.75;;
13028;SDS011;6581;42.662;23.402;2022-08-03T13:57:04;5.30;;;3.53;;
13028;SDS011;6581;42.662;23.402;2022-08-03T13:59:31;4.07;;;3.53;;
13028;SDS011;6581;42.662;23.402;2022-08-03T14:01:59;6.15;;;3.90;;
13028;SDS011;6581;42.662;23.402;2022-08-03T14:04:27;7.20;;;3.92;;
13028;SDS011;6581;42.662;23.402;2022-08-03T14:06:54;4.18;;;3.80;;
13028;SDS011;6581;42.662;23.402;2022-08-03T14:09:23;6.72;;;3.40;;
13028;SDS011;6581;42.662;23.402;2022-08-03T14:18:00;6.85;;;6.25;;
13028;SDS011;6581;42.662;23.402;2022-08-03T14:20:28;5.45;;;4.78;;
13028;SDS011;6581;42.662;23.402;2022-08-03T14:22:56;8.18;;;4.60;;
13028;SDS011;6581;42.662;23.402;2022-08-03T14:25:23;9.32;;;7.72;;
13028;SDS011;6581;42.662;23.402;2022-08-03T14:27:50;5.32;;;3.75;;
13028;SDS011;6581;42.662;23.402;2022-08-03T14:30:18;5.53;;;3.60;;
13028;SDS011;6581;42.662;23.402;2022-08-03T14:32:46;6.45;;;4.20;;
13028;SDS011;6581;42.662;23.402;2022-08-03T14:35:13;6.85;;;3.67;;
13028;SDS011;6581;42.662;23.402;2022-08-03T14:37:41;6.65;;;5.13;;
13028;SDS011;6581;42.662;23.402;2022-08-03T14:40:09;39.35;;;30.23;;
13028;SDS011;6581;42.662;23.402;2022-08-03T14:42:36;18.48;;;14.15;;
13028;SDS011;6581;42.662;23.402;2022-08-03T14:45:04;26.83;;;21.63;;
13028;SDS011;6581;42.662;23.402;2022-08-03T14:47:56;26.40;;;23.55;;
13028;SDS011;6581;42.662;23.402;2022-08-03T14:50:24;7.38;;;6.57;;
13028;SDS011;6581;42.662;23.402;2022-08-03T14:52:54;4.32;;;3.92;;
13028;SDS011;6581;42.662;23.402;2022-08-03T14:55:21;4.63;;;4.30;;
13028;SDS011;6581;42.662;23.402;2022-08-03T14:57:50;6.38;;;5.78;;
13028;SDS011;6581;42.662;23.402;2022-08-03T15:00:17;10.18;;;9.15;;
13028;SDS011;6581;42.662;23.402;2022-08-03T15:02:44;4.53;;;3.88;;
13028;SDS011;6581;42.662;23.402;2022-08-03T15:05:11;6.47;;;4.00;;
13028;SDS011;6581;42.662;23.402;2022-08-03T15:07:39;5.20;;;3.92;;
13028;SDS011;6581;42.662;23.402;2022-08-03T15:10:08;5.95;;;4.50;;
13028;SDS011;6581;42.662;23.402;2022-08-03T15:12:35;8.85;;;6.88;;
13028;SDS011;6581;42.662;23.402;2022-08-03T15:15:03;22.63;;;16.48;;
13028;SDS011;6581;42.662;23.402;2022-08-03T15:17:31;23.13;;;13.95;;
13028;SDS011;6581;42.662;23.402;2022-08-03T15:19:58;23.88;;;19.15;;
13028;SDS011;6581;42.662;23.402;2022-08-03T15:22:26;10.30;;;9.18;;
13028;SDS011;6581;42.662;23.402;2022-08-03T15:24:53;16.38;;;13.48;;
13028;SDS011;6581;42.662;23.402;2022-08-03T15:27:23;24.40;;;20.65;;
13028;SDS011;6581;42.662;23.402;2022-08-03T15:29:50;13.13;;;10.95;;